Time;durP1;ratioP1;P1;durP2;ratioP2;P2;SDS_P1;SDS_P2;PMS_P1;PMS_P2;Temp;Humidity;BMP_temperature;BMP_pressure;BME280_temperature;BME280_humidity;BME280_pressure;Samples;Min_cycle;Max_cycle;Signal;HPM_P1;HPM_P2
2021/01/30 00:00:39;;;;;;;12.07;6.07;;;7.80;99.90;;;;;;4913920;29;20047;-90
2021/01/30 00:03:10;;;;;;;13.43;7.38;;;7.80;99.90;;;;;;4924255;29;20035;-90
2021/01/30 00:05:41;;;;;;;12.25;6.97;;;7.70;99.90;;;;;;4907956;29;20031;-90
2021/01/30 00:08:08;;;;;;;13.98;6.63;;;7.70;99.90;;;;;;4914691;29;20029;-90
2021/01/30 00:10:36;;;;;;;15.98;7.20;;;7.70;99.90;;;;;;4938044;29;20083;-91
2021/01/30 00:13:05;;;;;;;14.18;6.80;;;7.60;99.90;;;;;;4935283;29;20032;-89
2021/01/30 00:15:35;;;;;;;10.57;6.47;;;7.60;99.90;;;;;;4910766;29;20031;-90
2021/01/30 00:18:05;;;;;;;14.27;6.32;;;7.70;99.90;;;;;;4912056;29;20482;-90
2021/01/30 00:20:40;;;;;;;17.88;5.63;;;7.60;99.90;;;;;;4905949;29;20031;-91
2021/01/30 00:23:11;;;;;;;18.33;7.25;;;7.60;99.90;;;;;;4922488;29;20054;-90
2021/01/30 00:25:37;;;;;;;;;;;7.60;99.90;;;;;;4906332;29;20497;-91
2021/01/30 00:28:07;;;;;;;13.32;6.10;;;7.60;99.90;;;;;;4923016;29;19906;-92
2021/01/30 00:30:35;;;;;;;11.93;6.38;;;7.50;99.90;;;;;;4918398;29;20032;-91
2021/01/30 00:33:03;;;;;;;9.18;5.45;;;7.50;99.90;;;;;;4909838;29;20024;-92
2021/01/30 00:35:34;;;;;;;9.50;5.63;;;7.50;99.90;;;;;;4912048;29;20036;-93
2021/01/30 00:38:02;;;;;;;9.55;5.47;;;7.50;99.90;;;;;;4911122;29;20031;-92
2021/01/30 00:40:34;;;;;;;9.35;4.63;;;7.50;99.90;;;;;;4932035;29;20092;-92
2021/01/30 00:43:02;;;;;;;13.93;6.30;;;7.50;99.90;;;;;;4917323;29;20031;-92
2021/01/30 00:45:35;;;;;;;7.85;5.00;;;7.40;99.90;;;;;;4913166;29;20028;-94
2021/01/30 00:48:00;;;;;;;8.77;4.80;;;7.40;99.90;;;;;;4940609;29;20026;-92
2021/01/30 00:50:26;;;;;;;11.60;5.20;;;7.30;99.90;;;;;;4934044;29;20032;-94
2021/01/30 00:52:55;;;;;;;11.43;5.38;;;7.30;99.90;;;;;;4928963;29;20027;-93
2021/01/30 00:55:28;;;;;;;12.35;5.93;;;7.30;99.90;;;;;;4922120;29;20029;-92
2021/01/30 00:57:53;;;;;;;9.82;5.40;;;7.30;99.90;;;;;;4909180;29;20056;-92
2021/01/30 01:00:27;;;;;;;12.05;5.88;;;7.10;99.90;;;;;;4907920;29;20020;-91
2021/01/30 01:02:53;;;;;;;10.40;6.00;;;7.20;99.90;;;;;;4908080;29;20043;-92
2021/01/30 01:05:19;;;;;;;12.25;7.30;;;7.10;99.90;;;;;;4908368;29;20078;-89
2021/01/30 01:07:46;;;;;;;15.70;6.03;;;7.20;99.90;;;;;;4929193;29;20028;-91
2021/01/30 01:10:16;;;;;;;10.77;6.75;;;7.30;99.90;;;;;;4913804;29;20028;-90
2021/01/30 01:12:43;;;;;;;12.43;5.95;;;7.10;99.90;;;;;;4935086;29;20019;-89
2021/01/30 01:15:11;;;;;;;12.50;5.93;;;7.20;99.90;;;;;;4941868;29;20512;-90
2021/01/30 01:17:37;;;;;;;16.52;7.47;;;7.20;99.90;;;;;;4914753;29;20374;-90
2021/01/30 01:20:06;;;;;;;14.07;6.93;;;7.10;99.90;;;;;;4904750;29;20024;-89
2021/01/30 01:22:32;;;;;;;14.90;7.28;;;7.10;99.90;;;;;;4875039;29;20033;-92
2021/01/30 01:24:58;;;;;;;11.48;7.75;;;7.00;99.90;;;;;;4859657;29;20055;-91
2021/01/30 01:27:26;;;;;;;17.83;8.23;;;7.00;99.90;;;;;;4903800;29;20040;-92
2021/01/30 01:29:56;;;;;;;19.63;8.95;;;7.00;99.90;;;;;;4905085;29;20032;-92
2021/01/30 01:32:24;;;;;;;13.90;7.63;;;7.00;99.90;;;;;;4908539;29;20036;-93
2021/01/30 01:34:50;;;;;;;12.18;8.02;;;7.00;99.90;;;;;;4884669;29;20032;-92
2021/01/30 01:37:16;;;;;;;18.45;9.93;;;7.00;99.90;;;;;;4906608;29;20044;-92
2021/01/30 01:39:42;;;;;;;11.88;7.80;;;6.90;99.90;;;;;;4895531;29;20192;-92
2021/01/30 01:42:24;;;;;;;20.63;8.30;;;7.00;99.90;;;;;;4891403;29;20032;-90
2021/01/30 01:44:52;;;;;;;15.38;8.48;;;7.00;99.90;;;;;;4911729;29;20039;-90
2021/01/30 01:47:47;;;;;;;15.75;8.27;;;6.90;99.90;;;;;;4901117;29;20067;-89
2021/01/30 01:50:35;;;;;;;17.27;7.95;;;6.90;99.90;;;;;;4847956;29;20568;-91
2021/01/30 01:53:14;;;;;;;16.35;8.77;;;7.00;99.90;;;;;;4851030;29;20053;-89
2021/01/30 01:55:44;;;;;;;17.77;8.73;;;6.90;99.90;;;;;;4869242;29;20036;-89
2021/01/30 01:58:11;;;;;;;14.40;8.18;;;6.90;99.90;;;;;;4856858;29;20056;-90
2021/01/30 02:00:37;;;;;;;18.05;7.95;;;6.90;99.90;;;;;;4869374;29;20042;-92
2021/01/30 02:03:03;;;;;;;14.50;8.95;;;6.90;99.90;;;;;;4865355;29;20036;-92
2021/01/30 02:05:37;;;;;;;16.02;8.93;;;6.90;99.90;;;;;;4871535;29;20085;-91
2021/01/30 02:08:11;;;;;;;22.90;8.82;;;6.80;99.90;;;;;;4875550;29;20141;-91
2021/01/30 02:10:42;;;;;;;20.35;9.98;;;6.80;99.90;;;;;;4856123;29;20010;-92
2021/01/30 02:13:19;;;;;;;15.70;9.60;;;6.70;99.90;;;;;;4850318;29;20049;-94
2021/01/30 02:15:50;;;;;;;19.15;9.10;;;6.70;99.90;;;;;;4848551;29;20360;-92
2021/01/30 02:18:33;;;;;;;15.13;8.80;;;6.60;99.90;;;;;;4865268;29;20066;-93
2021/01/30 02:21:55;;;;;;;17.20;9.43;;;6.70;99.90;;;;;;4850515;29;20090;-93
2021/01/30 02:24:54;;;;;;;15.55;8.48;;;6.60;99.90;;;;;;4829062;29;20030;-90
2021/01/30 02:27:39;;;;;;;15.88;10.90;;;6.50;99.90;;;;;;4865128;29;20359;-90
2021/01/30 02:30:24;;;;;;;21.85;10.15;;;6.50;99.90;;;;;;4902478;29;20012;-90
2021/01/30 02:33:28;;;;;;;27.75;9.95;;;6.30;99.90;;;;;;4906016;29;20037;-90
2021/01/30 02:36:16;;;;;;;16.63;8.48;;;6.20;99.90;;;;;;4906219;29;20027;-89
2021/01/30 02:38:50;;;;;;;22.27;9.15;;;6.10;99.90;;;;;;4906156;29;20111;-91
2021/01/30 02:41:26;;;;;;;20.83;9.48;;;6.00;99.90;;;;;;4905924;29;20048;-92
2021/01/30 02:43:58;;;;;;;22.02;9.45;;;5.90;99.90;;;;;;4929894;28;20024;-91
2021/01/30 02:46:30;;;;;;;30.77;17.02;;;5.90;99.90;;;;;;4930682;28;20063;-91
2021/01/30 02:49:01;;;;;;;29.05;19.05;;;5.70;99.90;;;;;;4924578;29;20072;-91
2021/01/30 02:51:31;;;;;;;;;;;5.50;99.90;;;;;;4928115;29;20044;-92
2021/01/30 02:54:01;;;;;;;38.38;24.02;;;5.40;99.90;;;;;;4917840;29;19934;-92
2021/01/30 02:56:27;;;;;;;48.28;24.55;;;5.20;99.90;;;;;;4907048;29;20032;-91
2021/01/30 02:58:58;;;;;;;48.40;24.85;;;5.10;99.90;;;;;;4909494;29;20082;-91
2021/01/30 03:01:26;;;;;;;41.83;21.42;;;5.10;99.90;;;;;;4911066;29;20299;-91
2021/01/30 03:03:59;;;;;;;51.03;26.20;;;4.90;99.90;;;;;;4933402;29;20072;-91
2021/01/30 03:06:52;;;;;;;49.38;26.65;;;4.80;99.90;;;;;;4940720;29;20088;-91
2021/01/30 03:09:32;;;;;;;52.20;27.30;;;4.60;99.90;;;;;;4948385;28;20042;-90
2021/01/30 03:11:58;;;;;;;52.87;26.20;;;4.40;99.90;;;;;;4932161;29;20257;-91
2021/01/30 03:14:25;;;;;;;61.80;29.35;;;4.30;99.90;;;;;;4941845;29;20100;-92
2021/01/30 03:16:56;;;;;;;51.47;27.13;;;4.20;99.90;;;;;;4909767;29;20056;-93
2021/01/30 03:19:27;;;;;;;54.63;27.83;;;4.40;99.90;;;;;;4908452;29;20028;-92
2021/01/30 03:22:04;;;;;;;53.80;28.83;;;4.20;99.90;;;;;;4908336;29;20453;-94
2021/01/30 03:24:32;;;;;;;51.10;25.38;;;4.10;99.90;;;;;;4911519;29;21019;-94
2021/01/30 03:27:00;;;;;;;47.10;25.05;;;4.00;99.90;;;;;;4943038;29;20127;-94
2021/01/30 03:29:28;;;;;;;43.83;24.23;;;3.90;99.90;;;;;;4940233;29;20100;-93
2021/01/30 03:31:56;;;;;;;52.75;25.27;;;3.70;99.90;;;;;;4943586;29;20024;-92
2021/01/30 03:34:26;;;;;;;49.20;24.65;;;3.70;99.90;;;;;;4927021;29;20083;-91
2021/01/30 03:36:52;;;;;;;55.17;25.50;;;3.60;99.90;;;;;;4920389;29;20025;-92
2021/01/30 03:39:18;;;;;;;47.92;23.55;;;3.60;99.90;;;;;;4922849;29;20040;-93
2021/01/30 03:41:44;;;;;;;42.70;22.63;;;3.60;99.90;;;;;;4922015;29;20044;-94
2021/01/30 03:44:16;;;;;;;34.17;18.83;;;3.60;99.90;;;;;;4906475;29;20040;-92
2021/01/30 03:46:42;;;;;;;42.15;19.35;;;3.50;99.90;;;;;;4916240;29;20035;-92
2021/01/30 03:49:08;;;;;;;42.35;20.15;;;3.40;99.90;;;;;;4920037;29;20039;-93
2021/01/30 03:51:33;;;;;;;41.55;19.73;;;3.40;99.90;;;;;;4889619;29;20470;-92
2021/01/30 03:53:59;;;;;;;41.40;20.80;;;3.40;99.90;;;;;;4903579;29;20339;-91
2021/01/30 03:56:27;;;;;;;41.25;20.15;;;3.30;99.90;;;;;;4886245;29;20043;-91
2021/01/30 03:58:55;;;;;;;33.85;18.65;;;3.40;99.90;;;;;;4902233;29;20040;-92
2021/01/30 04:01:21;;;;;;;38.35;19.50;;;3.40;99.90;;;;;;4905993;29;20038;-93
2021/01/30 04:03:53;;;;;;;43.88;21.95;;;3.30;99.90;;;;;;4915602;29;20448;-92
2021/01/30 04:06:24;;;;;;;50.53;22.00;;;3.30;99.90;;;;;;4919962;29;20035;-92
2021/01/30 04:08:52;;;;;;;39.80;19.93;;;3.30;99.90;;;;;;4909529;29;20067;-93
2021/01/30 04:11:26;;;;;;;42.90;22.17;;;3.40;99.90;;;;;;4902253;29;20171;-92
2021/01/30 04:13:53;;;;;;;44.83;24.08;;;3.20;99.90;;;;;;4907091;29;20049;-91
2021/01/30 04:16:19;;;;;;;41.88;21.70;;;3.30;99.90;;;;;;4918510;29;20060;-91
2021/01/30 04:18:44;;;;;;;49.45;25.20;;;3.30;99.90;;;;;;4918807;29;20093;-92
2021/01/30 04:21:11;;;;;;;46.88;24.00;;;3.30;99.90;;;;;;4919364;29;20053;-92
2021/01/30 04:23:39;;;;;;;39.40;22.13;;;3.20;99.90;;;;;;4903225;29;20037;-91
2021/01/30 04:26:08;;;;;;;42.40;23.15;;;3.40;99.90;;;;;;4887650;29;20037;-92
2021/01/30 04:28:40;;;;;;;44.03;23.00;;;3.10;99.90;;;;;;4903989;29;20048;-91
2021/01/30 04:31:06;;;;;;;43.13;23.38;;;3.10;99.90;;;;;;4907276;29;20092;-91
2021/01/30 04:33:33;;;;;;;42.45;21.92;;;3.00;99.90;;;;;;4922568;29;20035;-90
2021/01/30 04:36:00;;;;;;;40.42;20.63;;;2.90;99.90;;;;;;4905094;29;20471;-90
2021/01/30 04:38:26;;;;;;;37.50;21.10;;;2.70;99.90;;;;;;4903826;29;20140;-91
2021/01/30 04:41:21;;;;;;;39.30;20.13;;;2.60;99.90;;;;;;4890288;29;20079;-91
2021/01/30 04:44:07;;;;;;;40.97;23.27;;;2.50;99.90;;;;;;4910261;29;20386;-92
2021/01/30 04:47:11;;;;;;;41.08;21.02;;;2.40;99.90;;;;;;4918421;29;20392;-92
2021/01/30 04:49:49;;;;;;;39.55;21.17;;;2.40;99.90;;;;;;4917628;29;20040;-90
2021/01/30 04:52:44;;;;;;;45.30;21.70;;;2.30;99.90;;;;;;4930444;29;20028;-88
2021/01/30 04:55:31;;;;;;;43.17;22.58;;;2.30;99.90;;;;;;4909990;29;20021;-88
2021/01/30 04:58:05;;;;;;;39.45;20.05;;;2.20;99.90;;;;;;4924150;29;20024;-90
2021/01/30 05:00:51;;;;;;;45.90;22.48;;;2.20;99.90;;;;;;4907312;29;20096;-89
2021/01/30 05:03:59;;;;;;;44.15;21.65;;;2.40;99.90;;;;;;4919029;29;20051;-88
2021/01/30 05:06:59;;;;;;;43.20;20.92;;;2.20;99.90;;;;;;4906756;29;20009;-90
2021/01/30 05:09:31;;;;;;;41.90;20.55;;;2.20;99.90;;;;;;4884427;29;20067;-90
2021/01/30 05:12:09;;;;;;;47.20;22.17;;;2.20;99.90;;;;;;4912897;29;20446;-90
2021/01/30 05:14:44;;;;;;;42.03;22.25;;;2.30;99.90;;;;;;4923912;29;20028;-90
2021/01/30 05:17:27;;;;;;;47.63;22.30;;;2.30;99.90;;;;;;4938563;29;20044;-89
2021/01/30 05:20:07;;;;;;;41.03;21.25;;;2.20;99.90;;;;;;4942406;29;20051;-89
2021/01/30 05:22:39;;;;;;;45.53;24.30;;;2.20;99.90;;;;;;4909916;29;20042;-89
2021/01/30 05:25:13;;;;;;;44.22;22.08;;;2.20;99.90;;;;;;4933128;29;20020;-90
2021/01/30 05:27:49;;;;;;;47.08;22.98;;;2.10;99.90;;;;;;4906872;29;20043;-90
2021/01/30 05:30:51;;;;;;;45.90;23.20;;;2.20;99.90;;;;;;4919042;28;20061;-92
2021/01/30 05:33:35;;;;;;;43.22;21.77;;;2.20;99.90;;;;;;4950916;28;20028;-92
2021/01/30 05:36:16;;;;;;;50.33;23.45;;;2.30;99.90;;;;;;4930885;28;20032;-91
2021/01/30 05:38:50;;;;;;;46.58;24.17;;;2.20;99.90;;;;;;4914755;29;20027;-91
2021/01/30 05:41:45;;;;;;;45.25;24.40;;;2.30;99.90;;;;;;4910124;28;20037;-92
2021/01/30 05:44:37;;;;;;;40.72;22.25;;;2.20;99.90;;;;;;4922028;29;20057;-92
2021/01/30 05:47:12;;;;;;;43.88;23.77;;;2.20;99.90;;;;;;4904588;29;20051;-92
2021/01/30 05:50:13;;;;;;;43.97;22.90;;;2.20;99.90;;;;;;4915748;29;20362;-91
2021/01/30 05:52:39;;;;;;;41.35;22.92;;;2.20;99.90;;;;;;4919209;29;20036;-93
2021/01/30 05:55:20;;;;;;;40.22;20.55;;;2.20;99.90;;;;;;4904600;29;20028;-94
2021/01/30 05:57:45;;;;;;;35.83;20.77;;;2.20;99.90;;;;;;4920585;29;20746;-92
2021/01/30 06:00:18;;;;;;;32.03;18.20;;;2.30;99.90;;;;;;4904510;29;20043;-92
2021/01/30 06:03:03;;;;;;;34.50;17.92;;;2.20;99.90;;;;;;4908018;29;20061;-92
2021/01/30 06:05:47;;;;;;;31.45;17.73;;;2.30;99.90;;;;;;4904634;29;20024;-92
2021/01/30 06:08:29;;;;;;;29.83;16.42;;;2.20;99.90;;;;;;4921341;29;20040;-93
2021/01/30 06:11:14;;;;;;;30.35;17.98;;;2.10;99.90;;;;;;4910797;28;20032;-92
2021/01/30 06:14:05;;;;;;;36.17;17.10;;;2.00;99.90;;;;;;4920088;28;20055;-92
2021/01/30 06:16:38;;;;;;;28.05;14.43;;;2.00;99.90;;;;;;4895058;29;20061;-93
2021/01/30 06:19:20;;;;;;;35.92;17.77;;;2.20;99.90;;;;;;4893669;29;20043;-88
2021/01/30 06:22:06;;;;;;;34.08;18.30;;;2.00;99.90;;;;;;4894211;29;20036;-91
2021/01/30 06:24:34;;;;;;;37.83;18.83;;;2.10;99.90;;;;;;4886800;29;20091;-91
2021/01/30 06:27:09;;;;;;;38.65;20.80;;;1.90;99.90;;;;;;4910381;29;20343;-90
2021/01/30 06:29:47;;;;;;;37.58;19.52;;;1.90;99.90;;;;;;4907222;29;20136;-88
2021/01/30 06:32:24;;;;;;;36.15;19.75;;;1.90;99.90;;;;;;4894080;29;20025;-89
2021/01/30 06:35:06;;;;;;;39.50;21.30;;;1.90;99.90;;;;;;4898745;29;20478;-90
2021/01/30 06:38:01;;;;;;;39.85;20.67;;;2.00;99.90;;;;;;4898610;29;20025;-92
2021/01/30 06:40:31;;;;;;;42.58;19.92;;;2.00;99.90;;;;;;4877899;29;20671;-90
2021/01/30 06:43:11;;;;;;;41.67;21.13;;;1.90;99.90;;;;;;4853020;29;20042;-90
2021/01/30 06:45:44;;;;;;;39.97;20.40;;;1.90;99.90;;;;;;4886288;29;20053;-90
2021/01/30 06:48:31;;;;;;;42.80;22.88;;;1.80;99.90;;;;;;4874712;29;20025;-90
2021/01/30 06:50:57;;;;;;;39.67;19.65;;;1.80;99.90;;;;;;4891476;29;20029;-90
2021/01/30 06:53:30;;;;;;;33.08;17.70;;;1.80;99.90;;;;;;4887323;29;20049;-91
2021/01/30 06:56:17;;;;;;;35.15;18.70;;;1.80;99.90;;;;;;4863567;29;20059;-91
2021/01/30 06:58:44;;;;;;;31.13;16.70;;;1.80;99.90;;;;;;4879065;29;20227;-91
2021/01/30 07:01:16;;;;;;;24.25;13.20;;;1.90;99.90;;;;;;4879224;29;20130;-90
2021/01/30 07:04:02;;;;;;;26.80;14.35;;;2.00;99.90;;;;;;4879275;29;20105;-90
2021/01/30 07:07:05;;;;;;;28.55;15.18;;;1.90;99.90;;;;;;4880732;29;20060;-91
2021/01/30 07:09:49;;;;;;;22.15;12.23;;;1.90;99.90;;;;;;4913489;29;20465;-88
2021/01/30 07:12:30;;;;;;;24.77;12.65;;;1.90;99.90;;;;;;4886807;29;20092;-90
2021/01/30 07:15:07;;;;;;;22.27;11.05;;;2.00;99.90;;;;;;4885403;29;20029;-89
2021/01/30 07:17:57;;;;;;;20.58;11.35;;;1.90;99.90;;;;;;4888512;29;20056;-91
2021/01/30 07:20:42;;;;;;;21.95;11.40;;;1.90;99.90;;;;;;4899315;29;20125;-90
2021/01/30 07:23:32;;;;;;;24.05;12.50;;;1.90;99.90;;;;;;4868470;29;20181;-90
2021/01/30 07:26:37;;;;;;;26.17;14.57;;;1.90;99.90;;;;;;4907807;29;20082;-90
2021/01/30 07:29:08;;;;;;;23.38;13.82;;;1.90;99.90;;;;;;4832256;29;20022;-91
2021/01/30 07:31:49;;;;;;;26.17;15.23;;;1.90;99.90;;;;;;4926286;29;20071;-92
2021/01/30 07:34:30;;;;;;;30.55;16.63;;;1.90;99.90;;;;;;4943651;29;20083;-88
2021/01/30 07:37:13;;;;;;;28.67;16.13;;;1.80;99.90;;;;;;4913762;29;20083;-86
2021/01/30 07:39:57;;;;;;;30.00;17.25;;;1.80;99.90;;;;;;4896127;29;20020;-86
2021/01/30 07:42:36;;;;;;;28.67;16.48;;;1.80;99.90;;;;;;4918842;29;20111;-91
2021/01/30 07:45:40;;;;;;;35.88;19.15;;;1.80;99.90;;;;;;4924589;29;20055;-87
2021/01/30 07:48:24;;;;;;;34.50;19.27;;;1.80;99.90;;;;;;4914647;29;20043;-87
2021/01/30 07:51:03;;;;;;;31.33;17.10;;;1.80;99.90;;;;;;4933920;29;20036;-87
2021/01/30 07:53:31;;;;;;;32.90;17.70;;;1.80;99.90;;;;;;4929387;29;20355;-85
2021/01/30 07:56:17;;;;;;;32.78;18.92;;;1.70;99.90;;;;;;4924618;29;20028;-85
2021/01/30 07:59:19;;;;;;;31.58;17.70;;;1.70;99.90;;;;;;4899804;29;20035;-86
2021/01/30 08:02:25;;;;;;;32.20;17.13;;;1.70;99.90;;;;;;4898871;29;20032;-87
2021/01/30 08:05:07;;;;;;;36.25;20.17;;;1.60;99.90;;;;;;4904938;29;20083;-86
2021/01/30 08:07:32;;;;;;;30.90;17.25;;;1.60;99.90;;;;;;4909220;29;20028;-89
2021/01/30 08:10:38;;;;;;;31.65;17.70;;;1.60;99.90;;;;;;4935302;29;20049;-88
2021/01/30 08:13:41;;;;;;;32.97;18.55;;;1.60;99.90;;;;;;4820563;29;20043;-89
2021/01/30 08:16:29;;;;;;;33.85;18.95;;;1.50;99.90;;;;;;4825609;29;20068;-87
2021/01/30 08:19:36;;;;;;;33.22;18.27;;;1.60;99.90;;;;;;4810040;29;20034;-87
2021/01/30 08:22:13;;;;;;;33.53;18.42;;;1.60;99.90;;;;;;4810748;29;20461;-87
2021/01/30 08:25:04;;;;;;;36.50;19.30;;;1.50;99.90;;;;;;4824411;29;20042;-87
2021/01/30 08:27:37;;;;;;;35.10;19.90;;;1.50;99.90;;;;;;4826823;29;20062;-87
2021/01/30 08:30:18;;;;;;;33.70;19.45;;;1.50;99.90;;;;;;4828015;29;20102;-87
2021/01/30 08:33:05;;;;;;;29.55;17.42;;;1.60;99.90;;;;;;4822740;29;20038;-85
2021/01/30 08:35:31;;;;;;;35.08;20.00;;;1.60;99.90;;;;;;4825299;29;20038;-87
2021/01/30 08:38:17;;;;;;;37.90;20.30;;;1.60;99.90;;;;;;4833874;29;20491;-85
2021/01/30 08:40:43;;;;;;;32.50;17.88;;;1.70;99.90;;;;;;4924134;23;20087;-82
2021/01/30 08:43:38;;;;;;;34.88;19.33;;;1.60;99.90;;;;;;4979814;28;20038;-86
2021/01/30 08:46:38;;;;;;;31.15;18.52;;;1.60;99.90;;;;;;4963675;28;20121;-86
2021/01/30 08:49:23;;;;;;;37.40;20.00;;;1.70;99.90;;;;;;4961425;28;20027;-85
2021/01/30 08:52:14;;;;;;;30.92;17.20;;;1.80;99.90;;;;;;5005310;23;20051;-87
2021/01/30 08:54:47;;;;;;;31.00;18.40;;;1.80;99.90;;;;;;4940571;29;20092;-87
2021/01/30 08:57:30;;;;;;;32.33;18.40;;;1.90;99.90;;;;;;4921511;29;20040;-85
2021/01/30 09:00:11;;;;;;;31.13;18.48;;;1.70;99.90;;;;;;4911995;28;20061;-90
2021/01/30 09:02:41;;;;;;;30.50;18.02;;;1.80;99.90;;;;;;4977654;23;20066;-86
2021/01/30 09:05:33;;;;;;;32.55;17.88;;;1.80;99.90;;;;;;4963017;28;20034;-87
2021/01/30 09:08:19;;;;;;;;;;;1.90;99.90;;;;;;4931171;28;20091;-86
2021/01/30 09:13:19;;;;;;;33.10;19.50;;;1.90;99.90;;;;;;4946695;28;20048;-84
2021/01/30 09:16:01;;;;;;;35.78;20.58;;;1.80;99.90;;;;;;4930912;29;20038;-86
2021/01/30 09:18:37;;;;;;;29.70;16.77;;;2.40;99.90;;;;;;4905482;29;20037;-89
2021/01/30 09:21:21;;;;;;;32.40;17.67;;;2.20;99.90;;;;;;4901742;29;20045;-86
2021/01/30 09:24:32;;;;;;;28.17;16.48;;;1.90;99.90;;;;;;4897901;29;20016;-85
2021/01/30 09:27:24;;;;;;;29.55;17.10;;;1.90;99.90;;;;;;4903448;29;20028;-88
2021/01/30 09:29:52;;;;;;;30.70;16.98;;;2.00;99.90;;;;;;4910964;29;20120;-85
2021/01/30 09:32:50;;;;;;;30.38;16.60;;;2.00;99.90;;;;;;4889323;29;20036;-90
2021/01/30 09:35:47;;;;;;;31.40;18.40;;;2.00;99.90;;;;;;4894554;29;20049;-83
2021/01/30 09:38:20;;;;;;;29.90;16.05;;;2.00;99.90;;;;;;4900059;29;20050;-86
2021/01/30 09:40:47;;;;;;;27.92;15.05;;;2.00;99.90;;;;;;4899780;29;20025;-82
2021/01/30 09:43:14;;;;;;;26.58;17.00;;;2.10;99.90;;;;;;4899334;29;20045;-84
2021/01/30 09:45:49;;;;;;;30.00;16.15;;;2.20;99.90;;;;;;4868775;29;20029;-84
2021/01/30 09:48:17;;;;;;;25.80;16.23;;;2.20;99.90;;;;;;4883687;29;20044;-83
2021/01/30 09:50:59;;;;;;;26.50;15.35;;;2.10;99.90;;;;;;4887291;29;20040;-84
2021/01/30 09:53:43;;;;;;;27.40;14.98;;;2.00;99.90;;;;;;4886327;29;20109;-84
2021/01/30 09:56:16;;;;;;;28.50;16.00;;;2.10;99.90;;;;;;4925476;29;20068;-84
2021/01/30 09:58:45;;;;;;;29.20;15.20;;;2.10;99.90;;;;;;4924062;29;20040;-84
2021/01/30 10:01:33;;;;;;;23.85;14.52;;;2.20;99.90;;;;;;4910816;29;20028;-85
2021/01/30 10:04:14;;;;;;;27.17;15.57;;;2.10;99.90;;;;;;4920076;29;20021;-84
2021/01/30 10:06:40;;;;;;;;;;;2.40;99.90;;;;;;4903937;29;20028;-85
2021/01/30 10:09:16;;;;;;;28.52;15.85;;;2.30;99.90;;;;;;4905451;29;19944;-83
2021/01/30 10:11:49;;;;;;;24.52;14.90;;;2.40;99.90;;;;;;4913564;28;20039;-85
2021/01/30 10:14:22;;;;;;;26.98;15.77;;;2.50;99.90;;;;;;4925442;29;20028;-85
2021/01/30 10:17:20;;;;;;;24.75;14.88;;;2.60;99.90;;;;;;4940058;29;20065;-85
2021/01/30 10:19:56;;;;;;;25.40;14.75;;;2.50;99.90;;;;;;4908917;29;20148;-85
2021/01/30 10:22:34;;;;;;;27.25;15.18;;;2.40;99.90;;;;;;4919784;29;20041;-85
2021/01/30 10:25:04;;;;;;;23.05;14.05;;;2.40;99.90;;;;;;4915071;29;20025;-85
2021/01/30 10:27:33;;;;;;;24.00;15.55;;;2.40;99.90;;;;;;4912453;29;20036;-84
2021/01/30 10:30:07;;;;;;;22.13;14.73;;;2.50;99.90;;;;;;4889806;29;20523;-85
2021/01/30 10:32:47;;;;;;;24.85;15.25;;;2.40;99.90;;;;;;4897807;29;20467;-85
2021/01/30 10:35:22;;;;;;;25.60;14.68;;;2.40;99.90;;;;;;4904868;29;20036;-85
2021/01/30 10:37:55;;;;;;;25.55;16.20;;;2.50;99.90;;;;;;4891827;29;20061;-82
2021/01/30 10:40:40;;;;;;;22.50;13.80;;;2.80;99.90;;;;;;4916360;29;20064;-83
2021/01/30 10:43:18;;;;;;;25.20;15.55;;;2.70;99.90;;;;;;4891153;29;20044;-84
2021/01/30 10:45:51;;;;;;;21.02;12.95;;;2.70;99.90;;;;;;4897833;29;20076;-84
2021/01/30 10:48:23;;;;;;;20.98;13.23;;;2.80;99.90;;;;;;4893457;29;20041;-84
2021/01/30 10:50:51;;;;;;;22.58;13.23;;;2.90;99.90;;;;;;4906815;29;20095;-85
2021/01/30 10:53:37;;;;;;;23.08;13.90;;;2.80;99.90;;;;;;4934876;29;20036;-84
2021/01/30 10:56:28;;;;;;;22.15;13.52;;;2.80;99.90;;;;;;4917856;29;20043;-85
2021/01/30 10:58:59;;;;;;;;;;;2.90;99.90;;;;;;4899694;29;20072;-85
2021/01/30 11:01:45;;;;;;;18.23;11.98;;;2.80;99.90;;;;;;4897814;29;19907;-84
2021/01/30 11:04:12;;;;;;;16.23;10.73;;;2.90;99.90;;;;;;4802908;29;20103;-84
2021/01/30 11:06:47;;;;;;;16.08;10.80;;;2.90;99.90;;;;;;4801221;29;20049;-84
2021/01/30 11:09:24;;;;;;;16.02;9.90;;;2.90;99.90;;;;;;4819487;29;20050;-84
2021/01/30 11:12:12;;;;;;;15.30;9.73;;;2.90;99.90;;;;;;4799415;29;20487;-84
2021/01/30 11:14:39;;;;;;;13.25;8.77;;;2.80;99.90;;;;;;4830034;29;20329;-84
2021/01/30 11:17:23;;;;;;;16.30;10.05;;;3.00;99.90;;;;;;4832228;29;20045;-85
2021/01/30 11:19:49;;;;;;;15.27;9.20;;;3.00;99.90;;;;;;4840803;29;20087;-85
2021/01/30 11:22:42;;;;;;;14.00;9.15;;;3.00;99.90;;;;;;4824546;29;20046;-84
2021/01/30 11:25:13;;;;;;;13.65;9.48;;;3.00;99.90;;;;;;4826574;29;20046;-85
2021/01/30 11:27:45;;;;;;;15.40;9.52;;;3.10;99.90;;;;;;4827016;29;20039;-84
2021/01/30 11:30:33;;;;;;;13.90;9.07;;;3.10;99.90;;;;;;4827363;29;20522;-84
2021/01/30 11:33:03;;;;;;;19.48;11.25;;;3.20;99.90;;;;;;4851823;29;20428;-85
2021/01/30 11:35:39;;;;;;;22.37;11.10;;;3.40;99.90;;;;;;4882440;29;20041;-84
2021/01/30 11:38:23;;;;;;;20.95;10.98;;;3.50;99.90;;;;;;4855062;29;20293;-84
2021/01/30 11:40:55;;;;;;;15.77;10.40;;;3.60;99.90;;;;;;4873022;29;20496;-84
2021/01/30 11:43:26;;;;;;;16.73;9.48;;;3.50;99.90;;;;;;4916746;29;20032;-84
2021/01/30 11:45:53;;;;;;;15.45;9.73;;;3.50;99.90;;;;;;4919366;29;20046;-85
2021/01/30 11:48:20;;;;;;;13.63;9.45;;;3.50;99.90;;;;;;4924930;29;20039;-84
2021/01/30 11:50:47;;;;;;;15.55;9.75;;;4.00;99.90;;;;;;4934954;29;20031;-84
2021/01/30 11:53:18;;;;;;;16.33;11.02;;;3.50;99.90;;;;;;4941545;29;20032;-85
2021/01/30 11:55:49;;;;;;;14.23;10.25;;;3.40;99.90;;;;;;4889843;29;20045;-84
2021/01/30 11:58:19;;;;;;;14.77;9.77;;;3.40;99.90;;;;;;4900067;29;20042;-87
2021/01/30 12:00:48;;;;;;;15.95;9.57;;;3.20;99.90;;;;;;4902832;29;20061;-84
2021/01/30 12:03:30;;;;;;;15.02;8.95;;;3.30;99.90;;;;;;4879576;29;20033;-84
2021/01/30 12:06:00;;;;;;;17.67;10.93;;;3.30;99.90;;;;;;4898295;29;20124;-85
2021/01/30 12:08:27;;;;;;;13.70;9.13;;;3.40;99.90;;;;;;4872370;29;20036;-85
2021/01/30 12:10:56;;;;;;;15.57;10.00;;;3.30;99.90;;;;;;4892490;29;20495;-84
2021/01/30 12:13:29;;;;;;;13.68;9.13;;;3.40;99.90;;;;;;4883719;29;20091;-85
2021/01/30 12:16:01;;;;;;;13.70;9.00;;;3.50;99.90;;;;;;4885256;29;20121;-87
2021/01/30 12:18:29;;;;;;;17.15;10.35;;;3.50;99.90;;;;;;4865482;29;20041;-85
2021/01/30 12:20:57;;;;;;;17.02;10.88;;;3.50;99.90;;;;;;4884754;29;20037;-84
2021/01/30 12:23:25;;;;;;;15.50;10.00;;;3.50;99.90;;;;;;4905545;29;20043;-86
2021/01/30 12:25:53;;;;;;;14.68;10.07;;;3.60;99.90;;;;;;4885971;29;20442;-84
2021/01/30 12:28:27;;;;;;;13.07;8.73;;;3.60;99.90;;;;;;4933254;29;20035;-84
2021/01/30 12:31:04;;;;;;;15.55;10.05;;;3.70;99.90;;;;;;4919853;29;20032;-84
2021/01/30 12:33:32;;;;;;;13.27;9.02;;;3.70;99.90;;;;;;4924076;29;20107;-86
2021/01/30 12:36:01;;;;;;;14.40;10.02;;;3.80;99.90;;;;;;4905557;29;20044;-85
2021/01/30 12:38:34;;;;;;;13.35;9.38;;;3.90;99.90;;;;;;4923909;29;20039;-85
2021/01/30 12:41:06;;;;;;;12.07;8.30;;;4.00;99.90;;;;;;4925201;29;20024;-85
2021/01/30 12:43:33;;;;;;;9.80;7.55;;;3.90;99.90;;;;;;4925480;29;20087;-86
2021/01/30 12:46:02;;;;;;;9.05;6.50;;;4.10;99.90;;;;;;4925907;29;20020;-85
2021/01/30 12:48:28;;;;;;;8.45;5.97;;;4.00;99.90;;;;;;4926153;29;20028;-85
2021/01/30 12:51:03;;;;;;;8.35;6.05;;;4.10;99.90;;;;;;4945778;29;20042;-85
2021/01/30 12:53:35;;;;;;;7.43;5.05;;;4.00;99.90;;;;;;4925203;29;20028;-86
2021/01/30 12:56:01;;;;;;;7.53;5.53;;;4.10;99.90;;;;;;4925836;29;20036;-84
2021/01/30 12:58:29;;;;;;;6.93;4.88;;;4.00;99.90;;;;;;4934460;29;20110;-84
2021/01/30 13:00:56;;;;;;;6.53;5.20;;;4.00;99.90;;;;;;4903116;29;20086;-85
2021/01/30 13:03:27;;;;;;;6.47;5.18;;;4.10;99.90;;;;;;4924054;29;20123;-83
2021/01/30 13:05:54;;;;;;;5.88;4.47;;;4.00;99.90;;;;;;4924796;29;20027;-85
2021/01/30 13:08:21;;;;;;;6.28;4.47;;;4.20;99.90;;;;;;4943135;29;20055;-85
2021/01/30 13:10:47;;;;;;;7.13;4.68;;;4.20;99.90;;;;;;4924104;29;20118;-84
2021/01/30 13:13:15;;;;;;;4.88;4.35;;;4.20;99.90;;;;;;4932186;29;20058;-84
2021/01/30 13:15:41;;;;;;;7.43;4.15;;;4.20;99.90;;;;;;4923513;29;20031;-84
2021/01/30 13:18:07;;;;;;;3.50;2.85;;;4.10;99.90;;;;;;4921211;29;20598;-84
2021/01/30 13:20:35;;;;;;;4.38;3.53;;;3.90;99.90;;;;;;4919007;29;20051;-85
2021/01/30 13:23:02;;;;;;;4.32;3.50;;;4.00;99.90;;;;;;4926780;29;20034;-84
2021/01/30 13:25:29;;;;;;;5.53;4.13;;;4.10;99.90;;;;;;4931223;29;20023;-85
2021/01/30 13:27:56;;;;;;;5.60;3.92;;;4.20;99.90;;;;;;4937063;29;20118;-84
2021/01/30 13:30:28;;;;;;;5.57;3.75;;;4.20;99.90;;;;;;4935022;29;20079;-85